createdAt,value
2022-11-17T12:21:25.010Z,59.53
2022-11-17T12:24:17.495Z,59.44
2022-11-17T12:26:45.400Z,59.50
2022-11-17T12:29:22.005Z,59.58
2022-11-17T12:31:57.595Z,59.47
2022-11-17T12:34:31.818Z,59.72
2022-11-17T12:37:23.918Z,59.16
2022-11-17T12:39:52.747Z,59.13
2022-11-17T12:42:19.973Z,58.86
2022-11-17T12:45:04.578Z,58.65
2022-11-17T12:47:43.087Z,58.91
2022-11-17T12:50:19.695Z,58.69
2022-11-17T12:53:26.949Z,58.74
2022-11-17T12:56:03.308Z,58.54
2022-11-17T12:58:58.115Z,58.19
2022-11-17T13:02:11.107Z,57.73
2022-11-17T13:05:14.519Z,57.76
2022-11-17T13:07:41.819Z,58.10
2022-11-17T13:10:31.556Z,58.22
2022-11-17T13:13:23.043Z,58.46
2022-11-17T13:15:57.747Z,58.66
2022-11-17T13:18:37.953Z,59.44
2022-11-17T13:21:32.794Z,59.35
2022-11-17T13:24:00.840Z,59.27
2022-11-17T13:26:31.896Z,58.81
2022-11-17T13:29:10.830Z,58.49
2022-11-17T13:31:38.348Z,58.72
2022-11-17T13:34:15.999Z,58.38
2022-11-17T13:36:56.423Z,57.91
2022-11-17T13:39:27.256Z,57.84
2022-11-17T13:42:02.333Z,58.12
2022-11-17T13:44:31.001Z,58.58
2022-11-17T13:47:20.749Z,58.79
2022-11-17T13:49:48.524Z,59.19
2022-11-17T13:52:46.708Z,59.79
2022-11-17T13:55:22.992Z,60.49
2022-11-17T13:58:00.189Z,61.05
2022-11-17T14:00:29.908Z,61.60
2022-11-17T14:03:36.257Z,62.14
2022-11-17T14:06:12.934Z,62.46
2022-11-17T14:08:42.858Z,62.64
2022-11-17T14:11:10.236Z,62.94
2022-11-17T14:13:56.563Z,62.94
2022-11-17T14:16:41.432Z,63.04
2022-11-17T14:19:15.064Z,62.68
2022-11-17T14:22:11.466Z,62.29
2022-11-17T14:24:40.557Z,62.14
2022-11-17T14:27:27.000Z,62.22
2022-11-17T14:29:54.233Z,62.43
2022-11-17T14:32:21.708Z,62.61
2022-11-17T14:34:49.004Z,62.59
2022-11-17T14:37:16.529Z,62.67
2022-11-17T14:39:43.767Z,62.69
2022-11-17T14:42:11.368Z,62.72
2022-11-17T14:44:38.635Z,62.69
2022-11-17T14:47:06.125Z,62.71
2022-11-17T14:49:33.351Z,62.83
2022-11-17T14:52:00.591Z,63.16
2022-11-17T14:54:27.791Z,62.95
2022-11-17T14:56:55.000Z,62.32
2022-11-17T14:59:22.210Z,62.44
2022-11-17T15:01:49.416Z,62.39
2022-11-17T15:04:48.313Z,62.47
2022-11-17T15:07:03.780Z,62.60
2022-11-17T15:09:31.169Z,62.46
2022-11-17T15:11:58.443Z,62.83
2022-11-17T15:14:25.811Z,63.00
2022-11-17T15:16:53.089Z,62.91
2022-11-17T15:19:20.344Z,63.09
2022-11-17T15:21:47.671Z,63.21
2022-11-17T15:24:15.421Z,62.79
2022-11-17T15:26:42.970Z,62.84
2022-11-17T15:29:14.953Z,62.86
2022-11-17T15:31:42.746Z,62.77
2022-11-17T15:34:19.718Z,62.87
2022-11-17T15:36:48.317Z,62.88
2022-11-17T15:39:19.294Z,62.78
2022-11-17T15:41:47.911Z,62.38
2022-11-17T15:44:15.710Z,62.49
2022-11-17T15:46:47.359Z,62.54
2022-11-17T15:49:15.751Z,62.21
2022-11-17T15:51:43.165Z,61.99
2022-11-17T15:54:20.074Z,61.82
2022-11-17T15:56:48.253Z,61.94
2022-11-17T15:59:15.742Z,62.15
2022-11-17T16:01:43.564Z,62.13
2022-11-17T16:04:15.603Z,62.11
2022-11-17T16:06:45.349Z,62.21
2022-11-17T16:09:13.756Z,62.22
2022-11-17T16:11:41.256Z,62.14
2022-11-17T16:14:09.248Z,62.08
2022-11-17T16:16:39.117Z,62.30
2022-11-17T16:19:07.285Z,62.14
2022-11-17T16:21:34.611Z,62.18
2022-11-17T16:24:02.013Z,62.33
2022-11-17T16:26:30.941Z,62.34
2022-11-17T16:29:05.438Z,62.28
2022-11-17T16:31:36.144Z,62.28
2022-11-17T16:34:14.040Z,62.34
2022-11-17T16:36:43.614Z,62.19
2022-11-17T16:39:15.497Z,61.97
2022-11-17T16:41:45.283Z,62.10
2022-11-17T16:44:18.782Z,62.08
2022-11-17T16:46:48.726Z,61.93
2022-11-17T16:49:19.644Z,62.29
2022-11-17T16:51:52.875Z,61.87
2022-11-17T16:54:20.773Z,61.85
2022-11-17T16:56:48.421Z,61.76
2022-11-17T16:59:16.689Z,61.73
2022-11-17T17:01:44.432Z,61.87
2022-11-17T17:04:12.540Z,62.16
2022-11-17T17:06:43.272Z,62.06
2022-11-17T17:09:14.119Z,62.05
2022-11-17T17:11:42.401Z,61.91
2022-11-17T17:14:14.331Z,61.77
2022-11-17T17:16:42.501Z,61.76
2022-11-17T17:19:11.496Z,61.59
2022-11-17T17:21:40.433Z,61.72
2022-11-17T17:24:09.660Z,61.81
2022-11-17T17:26:38.543Z,61.80
2022-11-17T17:29:07.094Z,61.75
2022-11-17T17:31:39.374Z,61.80
2022-11-17T17:34:08.621Z,61.64
2022-11-17T17:36:36.295Z,61.73
2022-11-17T17:39:05.165Z,61.67
2022-11-17T17:41:39.902Z,61.53
2022-11-17T17:44:13.482Z,61.66
2022-11-17T17:46:40.779Z,61.84
2022-11-17T17:49:08.242Z,61.48
2022-11-17T17:51:43.752Z,61.56
2022-11-17T17:54:20.253Z,61.91
2022-11-17T17:56:48.098Z,61.86
2022-11-17T17:59:16.042Z,61.88
2022-11-17T18:01:44.121Z,62.04
2022-11-17T18:04:17.009Z,62.33
2022-11-17T18:06:46.504Z,62.09
2022-11-17T18:09:14.879Z,61.93
2022-11-17T18:11:42.287Z,62.07
2022-11-17T18:14:10.504Z,61.87
2022-11-17T18:16:37.805Z,62.10
2022-11-17T18:19:08.469Z,61.96
2022-11-17T18:21:36.804Z,61.90
2022-11-17T18:24:04.915Z,61.53
2022-11-17T18:26:35.424Z,61.50
2022-11-17T18:29:06.838Z,61.25
2022-11-17T18:31:36.827Z,61.72
2022-11-17T18:34:21.517Z,61.56
2022-11-17T18:36:51.707Z,61.65
2022-11-17T18:39:19.790Z,61.63
2022-11-17T18:41:47.293Z,61.86
2022-11-17T18:44:17.432Z,62.55
2022-11-17T18:46:45.606Z,62.40
2022-11-17T18:49:12.846Z,62.47
2022-11-17T18:51:40.025Z,62.37
2022-11-17T18:54:07.306Z,62.50
2022-11-17T18:56:37.562Z,62.45
2022-11-17T18:59:07.088Z,62.50
2022-11-17T19:01:34.339Z,62.62
2022-11-17T19:04:01.793Z,62.75
2022-11-17T19:06:29.898Z,62.65
2022-11-17T19:09:01.142Z,62.80
2022-11-17T19:11:30.160Z,62.98
2022-11-17T19:14:00.710Z,62.91
2022-11-17T19:16:29.028Z,62.99
2022-11-17T19:18:57.719Z,63.00
2022-11-17T19:21:33.752Z,62.71
2022-11-17T19:24:03.811Z,63.07
2022-11-17T19:26:34.698Z,63.12
2022-11-17T19:29:07.084Z,63.15
2022-11-17T19:31:37.790Z,62.97
2022-11-17T19:34:05.509Z,62.91
2022-11-17T19:36:34.304Z,62.76
2022-11-17T19:39:03.016Z,63.00
2022-11-17T19:41:35.424Z,63.06
2022-11-17T19:44:06.023Z,63.13
2022-11-17T19:46:34.369Z,63.19
2022-11-17T19:49:01.918Z,63.06
2022-11-17T19:51:35.914Z,63.27
2022-11-17T19:54:06.877Z,63.32
2022-11-17T19:56:34.775Z,63.29
2022-11-17T19:59:02.395Z,63.30
2022-11-17T20:01:31.598Z,63.26
2022-11-17T20:04:01.220Z,63.18
2022-11-17T20:06:34.610Z,63.18
2022-11-17T20:09:05.997Z,63.40
2022-11-17T20:11:33.275Z,63.63
2022-11-17T20:14:00.978Z,63.29
2022-11-17T20:16:29.615Z,63.37
2022-11-17T20:19:00.004Z,63.12
2022-11-17T20:21:29.446Z,63.29
2022-11-17T20:23:58.183Z,63.32
2022-11-17T20:26:29.669Z,63.47
2022-11-17T20:28:58.813Z,63.37
2022-11-17T20:31:30.494Z,63.55
2022-11-17T20:34:00.908Z,63.63
2022-11-17T20:36:31.484Z,63.40
2022-11-17T20:39:02.371Z,63.87
2022-11-17T20:41:33.087Z,63.81
2022-11-17T20:44:01.191Z,63.68
2022-11-17T20:46:28.933Z,63.68
2022-11-17T20:48:56.388Z,63.65
2022-11-17T20:51:25.418Z,63.65
2022-11-17T20:53:52.697Z,63.89
2022-11-17T20:56:20.629Z,63.75
2022-11-17T20:58:48.194Z,63.71
2022-11-17T21:01:21.932Z,63.85
2022-11-17T21:03:49.419Z,63.83
2022-11-17T21:06:18.111Z,63.86
2022-11-17T21:08:46.546Z,64.16
2022-11-17T21:11:17.948Z,64.22
2022-11-17T21:13:45.181Z,64.39
2022-11-17T21:16:14.959Z,64.49
2022-11-17T21:18:48.240Z,64.04
2022-11-17T21:21:16.456Z,63.90
2022-11-17T21:23:44.450Z,63.62
2022-11-17T21:26:16.912Z,63.71
2022-11-17T21:28:44.491Z,63.79
2022-11-17T21:31:20.770Z,63.66
2022-11-17T21:33:55.020Z,63.94
2022-11-17T21:36:24.289Z,63.93
2022-11-17T21:38:52.561Z,64.08
2022-11-17T21:41:26.324Z,64.18
2022-11-17T21:43:57.598Z,64.05
2022-11-17T21:46:28.085Z,63.92
2022-11-17T21:48:58.073Z,63.89
2022-11-17T21:51:32.282Z,64.23
2022-11-17T21:54:02.897Z,64.11
2022-11-17T21:56:30.562Z,64.11
2022-11-17T21:59:12.729Z,64.46
2022-11-17T22:01:40.661Z,64.14
2022-11-17T22:04:08.352Z,64.55
2022-11-17T22:06:35.557Z,64.41
2022-11-17T22:09:03.119Z,64.28
2022-11-17T22:11:31.764Z,64.35
2022-11-17T22:13:58.925Z,64.49
2022-11-17T22:16:26.247Z,64.74
2022-11-17T22:18:53.480Z,64.20
2022-11-17T22:21:20.735Z,64.64
2022-11-17T22:23:47.923Z,64.24
2022-11-17T22:26:15.133Z,64.42
2022-11-17T22:28:42.459Z,64.46
2022-11-17T22:31:10.475Z,64.41
2022-11-17T22:33:37.667Z,64.40
2022-11-17T22:36:05.219Z,64.30
2022-11-17T22:38:32.976Z,64.07
2022-11-17T22:41:03.212Z,63.99
2022-11-17T22:43:31.009Z,64.27
2022-11-17T22:46:03.316Z,64.24
2022-11-17T22:48:31.389Z,64.29
2022-11-17T22:51:00.116Z,64.13
2022-11-17T22:53:28.289Z,64.00
2022-11-17T22:55:55.594Z,63.92
2022-11-17T22:58:22.907Z,63.88
2022-11-17T23:00:50.188Z,63.84
2022-11-17T23:03:17.384Z,64.12
2022-11-17T23:05:44.586Z,63.98
2022-11-17T23:08:11.752Z,64.09
2022-11-17T23:10:38.899Z,64.05
2022-11-17T23:13:06.158Z,63.98
2022-11-17T23:15:33.495Z,63.94
2022-11-17T23:18:00.692Z,63.98
2022-11-17T23:20:27.927Z,64.08
2022-11-17T23:22:55.319Z,64.03
2022-11-17T23:25:22.470Z,64.04
2022-11-17T23:27:49.578Z,63.99
2022-11-17T23:30:17.117Z,64.19
2022-11-17T23:32:44.276Z,64.35
2022-11-17T23:35:11.399Z,63.89
2022-11-17T23:37:38.764Z,63.86
2022-11-17T23:40:06.621Z,63.45
2022-11-17T23:42:37.393Z,63.85
2022-11-17T23:45:08.275Z,63.53
2022-11-17T23:47:35.642Z,63.76
2022-11-17T23:50:03.239Z,63.90
2022-11-17T23:52:30.881Z,63.54
2022-11-17T23:54:58.136Z,63.37
2022-11-17T23:57:25.219Z,63.41
2022-11-17T23:59:52.500Z,63.34
